sensor_id;sensor_type;location;lat;lon;timestamp;P1;durP1;ratioP1;P2;durP2;ratioP2
8889;SDS011;4481;43.406;24.454;2022-11-20T00:00:11;18.00;;;12.30;;
8889;SDS011;4481;43.406;24.454;2022-11-20T00:02:38;16.13;;;12.63;;
8889;SDS011;4481;43.406;24.454;2022-11-20T00:05:05;14.37;;;12.23;;
8889;SDS011;4481;43.406;24.454;2022-11-20T00:07:32;14.77;;;12.47;;
8889;SDS011;4481;43.406;24.454;2022-11-20T00:09:58;18.33;;;12.50;;
8889;SDS011;4481;43.406;24.454;2022-11-20T00:12:24;18.00;;;12.90;;
8889;SDS011;4481;43.406;24.454;2022-11-20T00:14:50;15.97;;;12.87;;
8889;SDS011;4481;43.406;24.454;2022-11-20T00:17:16;18.10;;;13.10;;
8889;SDS011;4481;43.406;24.454;2022-11-20T00:19:43;14.57;;;13.00;;
8889;SDS011;4481;43.406;24.454;2022-11-20T00:22:10;19.00;;;11.97;;
8889;SDS011;4481;43.406;24.454;2022-11-20T00:24:36;17.53;;;12.93;;
8889;SDS011;4481;43.406;24.454;2022-11-20T00:27:02;19.67;;;13.50;;
8889;SDS011;4481;43.406;24.454;2022-11-20T00:29:29;16.37;;;12.93;;
8889;SDS011;4481;43.406;24.454;2022-11-20T00:31:55;19.33;;;13.70;;
8889;SDS011;4481;43.406;24.454;2022-11-20T00:34:21;17.73;;;12.93;;
8889;SDS011;4481;43.406;24.454;2022-11-20T00:36:48;16.30;;;13.13;;
8889;SDS011;4481;43.406;24.454;2022-11-20T00:39:14;18.27;;;13.63;;
8889;SDS011;4481;43.406;24.454;2022-11-20T00:41:40;16.63;;;14.53;;
8889;SDS011;4481;43.406;24.454;2022-11-20T00:44:06;18.77;;;13.87;;
8889;SDS011;4481;43.406;24.454;2022-11-20T00:46:32;16.70;;;13.83;;
8889;SDS011;4481;43.406;24.454;2022-11-20T00:48:59;21.43;;;15.03;;
8889;SDS011;4481;43.406;24.454;2022-11-20T00:51:26;19.70;;;15.30;;
8889;SDS011;4481;43.406;24.454;2022-11-20T00:53:55;22.33;;;14.60;;
8889;SDS011;4481;43.406;24.454;2022-11-20T00:56:21;19.73;;;14.17;;
8889;SDS011;4481;43.406;24.454;2022-11-20T00:58:48;17.50;;;14.57;;
8889;SDS011;4481;43.406;24.454;2022-11-20T01:01:15;19.70;;;15.20;;
8889;SDS011;4481;43.406;24.454;2022-11-20T01:03:44;20.43;;;13.53;;
8889;SDS011;4481;43.406;24.454;2022-11-20T01:06:12;18.57;;;13.90;;
8889;SDS011;4481;43.406;24.454;2022-11-20T01:08:40;18.40;;;13.80;;
8889;SDS011;4481;43.406;24.454;2022-11-20T01:11:08;18.63;;;14.17;;
8889;SDS011;4481;43.406;24.454;2022-11-20T01:13:36;15.80;;;13.67;;
8889;SDS011;4481;43.406;24.454;2022-11-20T01:16:03;16.77;;;13.27;;
8889;SDS011;4481;43.406;24.454;2022-11-20T01:18:29;16.47;;;13.07;;
8889;SDS011;4481;43.406;24.454;2022-11-20T01:20:59;16.97;;;13.73;;
8889;SDS011;4481;43.406;24.454;2022-11-20T01:23:27;18.33;;;13.70;;
8889;SDS011;4481;43.406;24.454;2022-11-20T01:25:56;15.23;;;12.63;;
8889;SDS011;4481;43.406;24.454;2022-11-20T01:28:23;17.67;;;14.50;;
8889;SDS011;4481;43.406;24.454;2022-11-20T01:30:49;15.20;;;13.53;;
8889;SDS011;4481;43.406;24.454;2022-11-20T01:33:15;19.87;;;14.87;;
8889;SDS011;4481;43.406;24.454;2022-11-20T01:35:41;20.37;;;14.70;;
8889;SDS011;4481;43.406;24.454;2022-11-20T01:38:07;18.43;;;14.53;;
8889;SDS011;4481;43.406;24.454;2022-11-20T01:40:33;16.43;;;13.33;;
8889;SDS011;4481;43.406;24.454;2022-11-20T01:43:01;15.53;;;13.33;;
8889;SDS011;4481;43.406;24.454;2022-11-20T01:45:56;18.63;;;13.50;;
8889;SDS011;4481;43.406;24.454;2022-11-20T01:48:28;17.60;;;13.87;;
8889;SDS011;4481;43.406;24.454;2022-11-20T01:50:58;15.67;;;13.20;;
8889;SDS011;4481;43.406;24.454;2022-11-20T01:53:28;18.60;;;13.63;;
8889;SDS011;4481;43.406;24.454;2022-11-20T01:55:59;20.13;;;14.33;;
8889;SDS011;4481;43.406;24.454;2022-11-20T01:58:27;17.57;;;14.17;;
8889;SDS011;4481;43.406;24.454;2022-11-20T02:00:57;19.20;;;14.47;;
8889;SDS011;4481;43.406;24.454;2022-11-20T02:03:24;23.47;;;16.17;;
8889;SDS011;4481;43.406;24.454;2022-11-20T02:05:51;19.40;;;13.93;;
8889;SDS011;4481;43.406;24.454;2022-11-20T02:08:22;19.23;;;14.67;;
8889;SDS011;4481;43.406;24.454;2022-11-20T02:10:49;20.77;;;14.97;;
8889;SDS011;4481;43.406;24.454;2022-11-20T02:13:16;22.87;;;16.20;;
8889;SDS011;4481;43.406;24.454;2022-11-20T02:16:01;15.97;;;13.73;;
8889;SDS011;4481;43.406;24.454;2022-11-20T02:18:28;26.77;;;16.20;;
8889;SDS011;4481;43.406;24.454;2022-11-20T02:20:55;19.20;;;14.27;;
8889;SDS011;4481;43.406;24.454;2022-11-20T02:23:27;17.63;;;14.50;;
8889;SDS011;4481;43.406;24.454;2022-11-20T02:25:59;16.57;;;13.63;;
8889;SDS011;4481;43.406;24.454;2022-11-20T02:28:27;20.03;;;16.63;;
8889;SDS011;4481;43.406;24.454;2022-11-20T02:30:54;31.53;;;17.33;;
8889;SDS011;4481;43.406;24.454;2022-11-20T02:33:20;32.80;;;18.67;;
8889;SDS011;4481;43.406;24.454;2022-11-20T02:35:46;25.07;;;17.83;;
8889;SDS011;4481;43.406;24.454;2022-11-20T02:38:13;26.83;;;18.57;;
8889;SDS011;4481;43.406;24.454;2022-11-20T02:40:40;31.60;;;20.83;;
8889;SDS011;4481;43.406;24.454;2022-11-20T02:43:07;29.73;;;20.33;;
8889;SDS011;4481;43.406;24.454;2022-11-20T02:45:34;29.50;;;20.37;;
8889;SDS011;4481;43.406;24.454;2022-11-20T02:48:00;23.53;;;19.70;;
8889;SDS011;4481;43.406;24.454;2022-11-20T02:50:27;33.53;;;20.03;;
8889;SDS011;4481;43.406;24.454;2022-11-20T02:52:53;20.20;;;17.43;;
8889;SDS011;4481;43.406;24.454;2022-11-20T02:55:19;23.97;;;17.57;;
8889;SDS011;4481;43.406;24.454;2022-11-20T02:57:45;20.93;;;16.47;;
8889;SDS011;4481;43.406;24.454;2022-11-20T03:00:13;19.70;;;16.13;;
8889;SDS011;4481;43.406;24.454;2022-11-20T03:02:39;17.17;;;14.60;;
8889;SDS011;4481;43.406;24.454;2022-11-20T03:05:06;17.73;;;14.70;;
8889;SDS011;4481;43.406;24.454;2022-11-20T03:07:33;17.20;;;13.73;;
8889;SDS011;4481;43.406;24.454;2022-11-20T03:09:59;18.50;;;14.73;;
8889;SDS011;4481;43.406;24.454;2022-11-20T03:12:25;17.20;;;14.20;;
8889;SDS011;4481;43.406;24.454;2022-11-20T03:14:51;18.73;;;14.00;;
8889;SDS011;4481;43.406;24.454;2022-11-20T03:17:18;19.87;;;15.10;;
8889;SDS011;4481;43.406;24.454;2022-11-20T03:19:44;18.90;;;14.67;;
8889;SDS011;4481;43.406;24.454;2022-11-20T03:22:11;19.53;;;15.20;;
8889;SDS011;4481;43.406;24.454;2022-11-20T03:24:37;22.47;;;16.43;;
8889;SDS011;4481;43.406;24.454;2022-11-20T03:27:03;24.90;;;18.83;;
8889;SDS011;4481;43.406;24.454;2022-11-20T03:29:29;24.20;;;17.87;;
8889;SDS011;4481;43.406;24.454;2022-11-20T03:31:55;21.80;;;16.23;;
8889;SDS011;4481;43.406;24.454;2022-11-20T03:34:22;25.13;;;18.40;;
8889;SDS011;4481;43.406;24.454;2022-11-20T03:36:49;28.63;;;20.30;;
8889;SDS011;4481;43.406;24.454;2022-11-20T03:39:15;24.67;;;18.27;;
8889;SDS011;4481;43.406;24.454;2022-11-20T03:41:41;27.27;;;19.80;;
8889;SDS011;4481;43.406;24.454;2022-11-20T03:44:09;22.43;;;17.40;;
8889;SDS011;4481;43.406;24.454;2022-11-20T03:46:36;24.87;;;18.93;;
8889;SDS011;4481;43.406;24.454;2022-11-20T03:49:02;26.20;;;19.93;;
8889;SDS011;4481;43.406;24.454;2022-11-20T03:51:30;29.60;;;20.50;;
8889;SDS011;4481;43.406;24.454;2022-11-20T03:54:00;26.77;;;19.80;;
8889;SDS011;4481;43.406;24.454;2022-11-20T03:56:30;24.83;;;19.63;;
8889;SDS011;4481;43.406;24.454;2022-11-20T03:58:57;27.03;;;20.47;;
8889;SDS011;4481;43.406;24.454;2022-11-20T04:01:24;27.40;;;22.13;;
8889;SDS011;4481;43.406;24.454;2022-11-20T04:03:52;30.93;;;21.70;;
8889;SDS011;4481;43.406;24.454;2022-11-20T04:06:20;33.73;;;23.80;;
8889;SDS011;4481;43.406;24.454;2022-11-20T04:08:48;40.03;;;26.87;;
8889;SDS011;4481;43.406;24.454;2022-11-20T04:11:16;37.83;;;28.60;;
8889;SDS011;4481;43.406;24.454;2022-11-20T04:13:45;46.47;;;31.53;;
8889;SDS011;4481;43.406;24.454;2022-11-20T04:16:13;46.53;;;30.67;;
8889;SDS011;4481;43.406;24.454;2022-11-20T04:18:40;45.07;;;30.00;;
8889;SDS011;4481;43.406;24.454;2022-11-20T04:21:07;60.33;;;33.67;;
8889;SDS011;4481;43.406;24.454;2022-11-20T04:23:33;56.53;;;34.70;;
8889;SDS011;4481;43.406;24.454;2022-11-20T04:26:03;54.97;;;36.93;;
8889;SDS011;4481;43.406;24.454;2022-11-20T04:28:31;65.83;;;38.70;;
8889;SDS011;4481;43.406;24.454;2022-11-20T04:31:04;51.63;;;35.13;;
8889;SDS011;4481;43.406;24.454;2022-11-20T04:33:32;58.40;;;35.50;;
8889;SDS011;4481;43.406;24.454;2022-11-20T04:36:00;56.53;;;32.13;;
8889;SDS011;4481;43.406;24.454;2022-11-20T04:38:27;60.17;;;34.70;;
8889;SDS011;4481;43.406;24.454;2022-11-20T04:40:55;43.03;;;31.67;;
8889;SDS011;4481;43.406;24.454;2022-11-20T04:43:23;49.43;;;30.57;;
8889;SDS011;4481;43.406;24.454;2022-11-20T04:45:50;56.00;;;31.83;;
8889;SDS011;4481;43.406;24.454;2022-11-20T04:48:16;58.20;;;30.07;;
8889;SDS011;4481;43.406;24.454;2022-11-20T04:50:42;44.83;;;30.17;;
8889;SDS011;4481;43.406;24.454;2022-11-20T04:53:08;48.30;;;30.07;;
8889;SDS011;4481;43.406;24.454;2022-11-20T04:55:35;58.57;;;30.13;;
8889;SDS011;4481;43.406;24.454;2022-11-20T04:58:01;50.17;;;29.27;;
8889;SDS011;4481;43.406;24.454;2022-11-20T05:00:28;47.00;;;28.47;;
8889;SDS011;4481;43.406;24.454;2022-11-20T05:02:54;48.63;;;30.37;;
8889;SDS011;4481;43.406;24.454;2022-11-20T05:05:20;56.43;;;29.03;;
8889;SDS011;4481;43.406;24.454;2022-11-20T05:07:46;52.27;;;27.80;;
8889;SDS011;4481;43.406;24.454;2022-11-20T05:10:12;66.87;;;30.57;;
8889;SDS011;4481;43.406;24.454;2022-11-20T05:12:39;51.40;;;29.47;;
8889;SDS011;4481;43.406;24.454;2022-11-20T05:15:05;51.10;;;27.50;;
8889;SDS011;4481;43.406;24.454;2022-11-20T05:17:33;49.50;;;30.07;;
8889;SDS011;4481;43.406;24.454;2022-11-20T05:19:59;60.87;;;29.40;;
8889;SDS011;4481;43.406;24.454;2022-11-20T05:22:25;52.03;;;29.43;;
8889;SDS011;4481;43.406;24.454;2022-11-20T05:24:51;56.07;;;29.57;;
8889;SDS011;4481;43.406;24.454;2022-11-20T05:27:17;57.57;;;29.77;;
8889;SDS011;4481;43.406;24.454;2022-11-20T05:29:44;55.53;;;31.13;;
8889;SDS011;4481;43.406;24.454;2022-11-20T05:32:10;45.90;;;32.23;;
8889;SDS011;4481;43.406;24.454;2022-11-20T05:34:37;56.87;;;31.47;;
8889;SDS011;4481;43.406;24.454;2022-11-20T05:37:03;51.60;;;31.53;;
8889;SDS011;4481;43.406;24.454;2022-11-20T05:39:29;52.33;;;34.77;;
8889;SDS011;4481;43.406;24.454;2022-11-20T05:41:56;55.33;;;35.30;;
8889;SDS011;4481;43.406;24.454;2022-11-20T05:44:36;55.43;;;33.83;;
8889;SDS011;4481;43.406;24.454;2022-11-20T05:47:02;46.73;;;31.10;;
8889;SDS011;4481;43.406;24.454;2022-11-20T05:49:29;47.40;;;29.47;;
8889;SDS011;4481;43.406;24.454;2022-11-20T05:51:56;44.47;;;29.37;;
8889;SDS011;4481;43.406;24.454;2022-11-20T05:54:22;58.13;;;31.50;;
8889;SDS011;4481;43.406;24.454;2022-11-20T05:56:48;54.93;;;28.77;;
8889;SDS011;4481;43.406;24.454;2022-11-20T05:59:14;43.63;;;26.40;;
8889;SDS011;4481;43.406;24.454;2022-11-20T06:01:41;53.23;;;28.53;;
8889;SDS011;4481;43.406;24.454;2022-11-20T06:04:07;40.20;;;26.90;;
8889;SDS011;4481;43.406;24.454;2022-11-20T06:06:33;71.87;;;29.60;;
8889;SDS011;4481;43.406;24.454;2022-11-20T06:09:00;44.93;;;28.50;;
8889;SDS011;4481;43.406;24.454;2022-11-20T06:11:26;49.90;;;27.63;;
8889;SDS011;4481;43.406;24.454;2022-11-20T06:13:52;49.70;;;28.17;;
8889;SDS011;4481;43.406;24.454;2022-11-20T06:16:19;51.90;;;29.97;;
8889;SDS011;4481;43.406;24.454;2022-11-20T06:18:47;51.73;;;29.87;;
8889;SDS011;4481;43.406;24.454;2022-11-20T06:21:14;53.33;;;29.93;;
8889;SDS011;4481;43.406;24.454;2022-11-20T06:23:41;47.23;;;29.83;;
8889;SDS011;4481;43.406;24.454;2022-11-20T06:26:09;44.20;;;30.83;;
8889;SDS011;4481;43.406;24.454;2022-11-20T06:28:36;42.87;;;29.47;;
8889;SDS011;4481;43.406;24.454;2022-11-20T06:31:03;38.77;;;27.63;;
8889;SDS011;4481;43.406;24.454;2022-11-20T06:33:30;54.10;;;29.70;;
8889;SDS011;4481;43.406;24.454;2022-11-20T06:35:56;48.10;;;29.63;;
8889;SDS011;4481;43.406;24.454;2022-11-20T06:38:23;41.73;;;28.23;;
8889;SDS011;4481;43.406;24.454;2022-11-20T06:40:49;46.43;;;27.17;;
8889;SDS011;4481;43.406;24.454;2022-11-20T06:43:16;41.37;;;27.37;;
8889;SDS011;4481;43.406;24.454;2022-11-20T06:45:42;44.60;;;26.07;;
8889;SDS011;4481;43.406;24.454;2022-11-20T06:48:09;38.53;;;25.87;;
8889;SDS011;4481;43.406;24.454;2022-11-20T06:50:35;39.87;;;25.13;;
8889;SDS011;4481;43.406;24.454;2022-11-20T06:53:02;41.17;;;26.10;;
8889;SDS011;4481;43.406;24.454;2022-11-20T06:55:29;40.07;;;26.30;;
8889;SDS011;4481;43.406;24.454;2022-11-20T06:57:56;39.87;;;26.27;;
8889;SDS011;4481;43.406;24.454;2022-11-20T07:00:23;39.53;;;26.87;;
8889;SDS011;4481;43.406;24.454;2022-11-20T07:02:49;42.20;;;26.87;;
8889;SDS011;4481;43.406;24.454;2022-11-20T07:05:15;47.40;;;28.73;;
8889;SDS011;4481;43.406;24.454;2022-11-20T07:07:41;41.10;;;28.17;;
8889;SDS011;4481;43.406;24.454;2022-11-20T07:10:08;43.10;;;27.17;;
8889;SDS011;4481;43.406;24.454;2022-11-20T07:12:35;39.40;;;27.40;;
8889;SDS011;4481;43.406;24.454;2022-11-20T07:15:01;37.83;;;25.70;;
8889;SDS011;4481;43.406;24.454;2022-11-20T07:17:28;36.10;;;25.63;;
8889;SDS011;4481;43.406;24.454;2022-11-20T07:19:54;40.23;;;26.07;;
8889;SDS011;4481;43.406;24.454;2022-11-20T07:22:21;41.23;;;25.10;;
8889;SDS011;4481;43.406;24.454;2022-11-20T07:24:47;36.53;;;23.87;;
8889;SDS011;4481;43.406;24.454;2022-11-20T07:27:13;29.00;;;22.53;;
8889;SDS011;4481;43.406;24.454;2022-11-20T07:29:39;32.27;;;23.03;;
8889;SDS011;4481;43.406;24.454;2022-11-20T07:32:05;29.67;;;23.13;;
8889;SDS011;4481;43.406;24.454;2022-11-20T07:34:32;34.43;;;24.53;;
8889;SDS011;4481;43.406;24.454;2022-11-20T07:36:58;31.93;;;23.10;;
8889;SDS011;4481;43.406;24.454;2022-11-20T07:39:25;37.10;;;23.27;;
8889;SDS011;4481;43.406;24.454;2022-11-20T07:41:51;36.53;;;25.23;;
8889;SDS011;4481;43.406;24.454;2022-11-20T07:44:17;41.03;;;24.97;;
8889;SDS011;4481;43.406;24.454;2022-11-20T07:46:43;40.07;;;25.67;;
8889;SDS011;4481;43.406;24.454;2022-11-20T07:49:09;37.97;;;25.90;;
8889;SDS011;4481;43.406;24.454;2022-11-20T07:51:36;37.53;;;24.10;;
8889;SDS011;4481;43.406;24.454;2022-11-20T07:54:03;34.57;;;23.13;;
8889;SDS011;4481;43.406;24.454;2022-11-20T07:56:29;37.03;;;24.03;;
8889;SDS011;4481;43.406;24.454;2022-11-20T07:58:55;34.80;;;23.43;;
8889;SDS011;4481;43.406;24.454;2022-11-20T08:01:21;34.50;;;24.23;;
8889;SDS011;4481;43.406;24.454;2022-11-20T08:03:47;36.07;;;24.20;;
8889;SDS011;4481;43.406;24.454;2022-11-20T08:06:13;32.70;;;23.47;;
8889;SDS011;4481;43.406;24.454;2022-11-20T08:08:41;32.80;;;23.83;;
8889;SDS011;4481;43.406;24.454;2022-11-20T08:11:07;31.27;;;24.57;;
8889;SDS011;4481;43.406;24.454;2022-11-20T08:13:51;34.83;;;25.87;;
8889;SDS011;4481;43.406;24.454;2022-11-20T08:16:35;33.17;;;23.63;;
8889;SDS011;4481;43.406;24.454;2022-11-20T08:19:01;36.97;;;26.17;;
8889;SDS011;4481;43.406;24.454;2022-11-20T08:21:27;35.77;;;26.47;;
8889;SDS011;4481;43.406;24.454;2022-11-20T08:23:54;37.03;;;26.30;;
8889;SDS011;4481;43.406;24.454;2022-11-20T08:26:20;42.40;;;26.13;;
8889;SDS011;4481;43.406;24.454;2022-11-20T08:28:47;36.73;;;25.73;;
8889;SDS011;4481;43.406;24.454;2022-11-20T08:31:13;33.67;;;24.07;;
8889;SDS011;4481;43.406;24.454;2022-11-20T08:33:39;40.57;;;29.20;;
8889;SDS011;4481;43.406;24.454;2022-11-20T08:36:06;38.80;;;28.57;;
8889;SDS011;4481;43.406;24.454;2022-11-20T08:38:32;39.93;;;26.23;;
8889;SDS011;4481;43.406;24.454;2022-11-20T08:40:59;39.00;;;24.97;;
8889;SDS011;4481;43.406;24.454;2022-11-20T08:43:59;34.97;;;24.57;;
8889;SDS011;4481;43.406;24.454;2022-11-20T08:46:27;33.83;;;22.83;;
8889;SDS011;4481;43.406;24.454;2022-11-20T08:48:58;30.93;;;22.60;;
8889;SDS011;4481;43.406;24.454;2022-11-20T08:51:24;33.77;;;25.23;;
8889;SDS011;4481;43.406;24.454;2022-11-20T08:53:50;35.90;;;29.47;;
8889;SDS011;4481;43.406;24.454;2022-11-20T08:56:17;37.33;;;25.23;;
8889;SDS011;4481;43.406;24.454;2022-11-20T08:58:43;31.73;;;23.50;;
8889;SDS011;4481;43.406;24.454;2022-11-20T09:01:10;31.10;;;23.07;;
8889;SDS011;4481;43.406;24.454;2022-11-20T09:03:36;31.57;;;21.93;;
8889;SDS011;4481;43.406;24.454;2022-11-20T09:06:03;33.13;;;23.07;;
8889;SDS011;4481;43.406;24.454;2022-11-20T09:08:32;24.87;;;18.47;;
8889;SDS011;4481;43.406;24.454;2022-11-20T09:10:58;31.23;;;20.20;;
8889;SDS011;4481;43.406;24.454;2022-11-20T09:13:26;28.40;;;21.07;;
8889;SDS011;4481;43.406;24.454;2022-11-20T09:15:53;34.57;;;21.90;;
8889;SDS011;4481;43.406;24.454;2022-11-20T09:18:20;36.00;;;23.87;;
8889;SDS011;4481;43.406;24.454;2022-11-20T09:20:47;30.20;;;21.20;;
8889;SDS011;4481;43.406;24.454;2022-11-20T09:23:13;22.37;;;17.90;;
8889;SDS011;4481;43.406;24.454;2022-11-20T09:25:40;23.90;;;18.63;;
8889;SDS011;4481;43.406;24.454;2022-11-20T09:28:06;25.90;;;18.67;;
8889;SDS011;4481;43.406;24.454;2022-11-20T09:30:32;25.47;;;18.17;;
8889;SDS011;4481;43.406;24.454;2022-11-20T09:32:59;26.50;;;18.63;;
8889;SDS011;4481;43.406;24.454;2022-11-20T09:35:25;23.90;;;18.17;;
8889;SDS011;4481;43.406;24.454;2022-11-20T09:37:51;28.13;;;17.40;;
8889;SDS011;4481;43.406;24.454;2022-11-20T09:40:19;22.30;;;16.77;;
8889;SDS011;4481;43.406;24.454;2022-11-20T09:42:47;23.00;;;16.40;;
8889;SDS011;4481;43.406;24.454;2022-11-20T09:45:22;22.07;;;16.37;;
8889;SDS011;4481;43.406;24.454;2022-11-20T09:50:45;21.43;;;18.47;;
8889;SDS011;4481;43.406;24.454;2022-11-20T09:53:18;19.57;;;16.80;;
8889;SDS011;4481;43.406;24.454;2022-11-20T09:55:56;25.00;;;17.80;;
8889;SDS011;4481;43.406;24.454;2022-11-20T09:58:26;25.90;;;18.23;;
8889;SDS011;4481;43.406;24.454;2022-11-20T10:00:58;25.37;;;17.30;;
8889;SDS011;4481;43.406;24.454;2022-11-20T10:03:33;21.50;;;16.97;;
8889;SDS011;4481;43.406;24.454;2022-11-20T10:06:05;24.37;;;16.93;;
8889;SDS011;4481;43.406;24.454;2022-11-20T10:08:39;22.93;;;18.57;;
8889;SDS011;4481;43.406;24.454;2022-11-20T10:11:12;21.00;;;17.33;;
8889;SDS011;4481;43.406;24.454;2022-11-20T10:13:45;28.33;;;17.80;;
8889;SDS011;4481;43.406;24.454;2022-11-20T10:16:26;23.07;;;16.90;;
8889;SDS011;4481;43.406;24.454;2022-11-20T10:19:09;19.50;;;16.47;;
8889;SDS011;4481;43.406;24.454;2022-11-20T10:21:50;22.67;;;15.97;;
8889;SDS011;4481;43.406;24.454;2022-11-20T10:30:17;70.43;;;45.33;;
8889;SDS011;4481;43.406;24.454;2022-11-20T10:32:47;28.77;;;19.87;;
8889;SDS011;4481;43.406;24.454;2022-11-20T10:35:20;24.37;;;17.33;;
8889;SDS011;4481;43.406;24.454;2022-11-20T10:37:50;25.30;;;18.13;;
8889;SDS011;4481;43.406;24.454;2022-11-20T10:40:27;28.80;;;16.80;;
8889;SDS011;4481;43.406;24.454;2022-11-20T10:42:59;23.97;;;16.87;;
8889;SDS011;4481;43.406;24.454;2022-11-20T10:45:31;23.00;;;17.43;;
8889;SDS011;4481;43.406;24.454;2022-11-20T10:48:07;20.47;;;16.37;;
8889;SDS011;4481;43.406;24.454;2022-11-20T10:50:40;31.13;;;24.20;;
8889;SDS011;4481;43.406;24.454;2022-11-20T10:53:16;35.60;;;24.23;;
8889;SDS011;4481;43.406;24.454;2022-11-20T10:55:53;21.37;;;16.57;;
8889;SDS011;4481;43.406;24.454;2022-11-20T10:58:25;22.30;;;17.40;;
8889;SDS011;4481;43.406;24.454;2022-11-20T11:01:04;22.27;;;17.87;;
8889;SDS011;4481;43.406;24.454;2022-11-20T11:03:31;30.00;;;22.63;;
8889;SDS011;4481;43.406;24.454;2022-11-20T11:05:59;32.10;;;22.33;;
8889;SDS011;4481;43.406;24.454;2022-11-20T11:08:34;23.43;;;17.73;;
8889;SDS011;4481;43.406;24.454;2022-11-20T11:11:02;25.60;;;17.83;;
8889;SDS011;4481;43.406;24.454;2022-11-20T11:13:43;20.73;;;16.37;;
8889;SDS011;4481;43.406;24.454;2022-11-20T11:16:16;22.47;;;17.13;;
8889;SDS011;4481;43.406;24.454;2022-11-20T11:18:46;26.13;;;18.33;;
8889;SDS011;4481;43.406;24.454;2022-11-20T11:21:13;24.80;;;20.07;;
8889;SDS011;4481;43.406;24.454;2022-11-20T11:23:48;26.57;;;19.23;;
8889;SDS011;4481;43.406;24.454;2022-11-20T11:26:24;24.40;;;18.17;;
8889;SDS011;4481;43.406;24.454;2022-11-20T11:28:54;24.13;;;19.10;;
8889;SDS011;4481;43.406;24.454;2022-11-20T11:31:25;27.47;;;19.57;;
8889;SDS011;4481;43.406;24.454;2022-11-20T11:33:52;27.07;;;20.33;;
8889;SDS011;4481;43.406;24.454;2022-11-20T11:36:30;24.10;;;19.40;;
8889;SDS011;4481;43.406;24.454;2022-11-20T11:38:59;27.60;;;19.20;;
8889;SDS011;4481;43.406;24.454;2022-11-20T11:41:28;31.83;;;18.43;;
8889;SDS011;4481;43.406;24.454;2022-11-20T11:44:00;25.67;;;20.23;;
8889;SDS011;4481;43.406;24.454;2022-11-20T11:46:56;27.83;;;19.30;;
8889;SDS011;4481;43.406;24.454;2022-11-20T11:49:24;19.40;;;17.27;;
8889;SDS011;4481;43.406;24.454;2022-11-20T11:51:56;23.10;;;18.50;;
8889;SDS011;4481;43.406;24.454;2022-11-20T11:54:38;20.07;;;17.00;;
8889;SDS011;4481;43.406;24.454;2022-11-20T11:57:12;21.87;;;17.43;;
8889;SDS011;4481;43.406;24.454;2022-11-20T11:59:49;27.13;;;19.17;;
8889;SDS011;4481;43.406;24.454;2022-11-20T12:02:25;22.43;;;19.53;;
8889;SDS011;4481;43.406;24.454;2022-11-20T12:05:02;25.57;;;18.03;;
8889;SDS011;4481;43.406;24.454;2022-11-20T12:07:38;19.70;;;16.63;;
8889;SDS011;4481;43.406;24.454;2022-11-20T12:10:12;25.20;;;18.50;;
8889;SDS011;4481;43.406;24.454;2022-11-20T12:12:42;21.37;;;16.93;;
8889;SDS011;4481;43.406;24.454;2022-11-20T12:15:13;24.47;;;17.50;;
8889;SDS011;4481;43.406;24.454;2022-11-20T12:17:48;26.10;;;21.27;;
8889;SDS011;4481;43.406;24.454;2022-11-20T12:20:14;28.67;;;22.33;;
8889;SDS011;4481;43.406;24.454;2022-11-20T12:22:43;27.60;;;22.87;;
8889;SDS011;4481;43.406;24.454;2022-11-20T12:25:17;25.33;;;20.70;;
8889;SDS011;4481;43.406;24.454;2022-11-20T12:27:51;23.80;;;19.27;;
8889;SDS011;4481;43.406;24.454;2022-11-20T12:30:27;24.30;;;19.70;;
8889;SDS011;4481;43.406;24.454;2022-11-20T12:33:09;24.47;;;18.00;;
8889;SDS011;4481;43.406;24.454;2022-11-20T12:35:49;24.90;;;20.43;;
8889;SDS011;4481;43.406;24.454;2022-11-20T12:38:39;28.00;;;21.07;;
8889;SDS011;4481;43.406;24.454;2022-11-20T12:41:23;27.03;;;20.13;;
8889;SDS011;4481;43.406;24.454;2022-11-20T12:44:25;28.17;;;19.87;;
8889;SDS011;4481;43.406;24.454;2022-11-20T12:47:24;23.27;;;20.73;;
8889;SDS011;4481;43.406;24.454;2022-11-20T12:50:02;26.33;;;20.03;;
8889;SDS011;4481;43.406;24.454;2022-11-20T12:52:37;29.23;;;22.23;;
8889;SDS011;4481;43.406;24.454;2022-11-20T12:55:16;27.53;;;20.47;;
8889;SDS011;4481;43.406;24.454;2022-11-20T12:57:54;21.97;;;17.63;;
8889;SDS011;4481;43.406;24.454;2022-11-20T13:00:26;21.70;;;17.80;;
8889;SDS011;4481;43.406;24.454;2022-11-20T13:03:01;27.07;;;18.63;;
8889;SDS011;4481;43.406;24.454;2022-11-20T13:05:41;27.40;;;20.53;;
8889;SDS011;4481;43.406;24.454;2022-11-20T13:08:15;29.20;;;22.37;;
8889;SDS011;4481;43.406;24.454;2022-11-20T13:10:48;29.13;;;21.73;;
8889;SDS011;4481;43.406;24.454;2022-11-20T13:13:18;32.00;;;24.07;;
8889;SDS011;4481;43.406;24.454;2022-11-20T13:15:50;41.53;;;25.87;;
8889;SDS011;4481;43.406;24.454;2022-11-20T13:18:24;28.03;;;23.23;;
8889;SDS011;4481;43.406;24.454;2022-11-20T13:20:50;33.37;;;25.27;;
8889;SDS011;4481;43.406;24.454;2022-11-20T13:23:23;31.93;;;24.13;;
8889;SDS011;4481;43.406;24.454;2022-11-20T13:25:52;32.93;;;24.27;;
8889;SDS011;4481;43.406;24.454;2022-11-20T13:28:29;29.30;;;22.23;;
8889;SDS011;4481;43.406;24.454;2022-11-20T13:30:57;31.07;;;22.37;;
8889;SDS011;4481;43.406;24.454;2022-11-20T13:33:26;30.50;;;22.13;;
8889;SDS011;4481;43.406;24.454;2022-11-20T13:35:56;27.93;;;22.43;;
8889;SDS011;4481;43.406;24.454;2022-11-20T13:38:24;27.77;;;21.30;;
8889;SDS011;4481;43.406;24.454;2022-11-20T13:40:51;27.87;;;20.07;;
8889;SDS011;4481;43.406;24.454;2022-11-20T13:43:21;29.13;;;22.07;;
8889;SDS011;4481;43.406;24.454;2022-11-20T13:45:56;28.37;;;22.30;;
8889;SDS011;4481;43.406;24.454;2022-11-20T13:48:24;25.80;;;19.53;;
8889;SDS011;4481;43.406;24.454;2022-11-20T13:50:56;33.77;;;22.00;;
8889;SDS011;4481;43.406;24.454;2022-11-20T13:53:33;29.33;;;18.67;;
8889;SDS011;4481;43.406;24.454;2022-11-20T13:56:14;20.80;;;17.50;;
8889;SDS011;4481;43.406;24.454;2022-11-20T13:58:51;26.43;;;20.10;;
8889;SDS011;4481;43.406;24.454;2022-11-20T14:01:24;28.57;;;21.77;;
8889;SDS011;4481;43.406;24.454;2022-11-20T14:03:52;48.77;;;34.73;;
8889;SDS011;4481;43.406;24.454;2022-11-20T14:06:20;36.40;;;30.80;;
8889;SDS011;4481;43.406;24.454;2022-11-20T14:08:52;30.67;;;23.67;;
8889;SDS011;4481;43.406;24.454;2022-11-20T14:11:20;27.13;;;20.90;;
8889;SDS011;4481;43.406;24.454;2022-11-20T14:13:56;28.07;;;21.03;;
8889;SDS011;4481;43.406;24.454;2022-11-20T14:16:24;33.03;;;21.53;;
8889;SDS011;4481;43.406;24.454;2022-11-20T14:18:53;26.33;;;21.70;;
8889;SDS011;4481;43.406;24.454;2022-11-20T14:21:23;30.40;;;22.87;;
8889;SDS011;4481;43.406;24.454;2022-11-20T14:23:54;40.57;;;28.20;;
8889;SDS011;4481;43.406;24.454;2022-11-20T14:26:29;37.87;;;27.63;;
8889;SDS011;4481;43.406;24.454;2022-11-20T14:28:55;39.93;;;30.27;;
8889;SDS011;4481;43.406;24.454;2022-11-20T14:31:23;37.03;;;30.57;;
8889;SDS011;4481;43.406;24.454;2022-11-20T14:33:51;46.13;;;31.97;;
8889;SDS011;4481;43.406;24.454;2022-11-20T14:36:20;40.00;;;29.97;;
8889;SDS011;4481;43.406;24.454;2022-11-20T14:38:48;42.10;;;30.60;;
8889;SDS011;4481;43.406;24.454;2022-11-20T14:41:16;42.43;;;30.47;;
8889;SDS011;4481;43.406;24.454;2022-11-20T14:43:45;37.13;;;28.73;;
8889;SDS011;4481;43.406;24.454;2022-11-20T14:46:13;49.27;;;32.80;;
8889;SDS011;4481;43.406;24.454;2022-11-20T14:48:40;43.53;;;29.83;;
8889;SDS011;4481;43.406;24.454;2022-11-20T14:51:11;36.50;;;28.30;;
8889;SDS011;4481;43.406;24.454;2022-11-20T14:53:37;42.27;;;28.47;;